Time;durP1;ratioP1;P1;durP2;ratioP2;P2;SDS_P1;SDS_P2;PMS_P1;PMS_P2;Temp;Humidity;BMP_temperature;BMP_pressure;BME280_temperature;BME280_humidity;BME280_pressure;Samples;Min_cycle;Max_cycle;Signal;HPM_P1;HPM_P2
2022/02/13 00:01:36;;;;;;;8.48;4.90;;;2.40;99.90;;;;;;5027490;28;20451;-43
2022/02/13 00:04:02;;;;;;;10.38;5.88;;;2.40;99.90;;;;;;5028287;28;20075;-43
2022/02/13 00:06:28;;;;;;;9.05;5.55;;;2.30;99.90;;;;;;5026528;28;20497;-43
2022/02/13 00:08:54;;;;;;;9.13;5.22;;;2.30;99.90;;;;;;5028077;28;20029;-45
2022/02/13 00:11:20;;;;;;;8.52;5.70;;;2.30;99.90;;;;;;5026960;28;20029;-43
2022/02/13 00:13:47;;;;;;;8.38;5.07;;;2.30;99.90;;;;;;5028129;28;20041;-45
2022/02/13 00:16:12;;;;;;;6.80;4.55;;;2.20;99.90;;;;;;5028347;28;20033;-42
2022/02/13 00:18:38;;;;;;;7.57;4.85;;;2.20;99.90;;;;;;5026547;28;20566;-44
2022/02/13 00:21:03;;;;;;;5.80;4.00;;;2.20;99.90;;;;;;5028109;28;20767;-43
2022/02/13 00:23:29;;;;;;;6.82;3.83;;;2.10;99.90;;;;;;5027025;28;20507;-43
2022/02/13 00:25:54;;;;;;;6.03;3.78;;;2.10;99.90;;;;;;5026944;28;20548;-43
2022/02/13 00:28:20;;;;;;;6.10;4.10;;;2.10;99.90;;;;;;5025448;28;20041;-43
2022/02/13 00:30:46;;;;;;;7.95;5.00;;;2.00;99.90;;;;;;5027395;28;20033;-44
2022/02/13 00:33:13;;;;;;;5.53;3.75;;;2.00;99.90;;;;;;5026309;28;20527;-44
2022/02/13 00:35:41;;;;;;;6.72;4.18;;;2.00;99.90;;;;;;5028025;28;20041;-43
2022/02/13 00:38:08;;;;;;;6.13;4.18;;;2.00;99.90;;;;;;5027138;28;20030;-44
2022/02/13 00:40:33;;;;;;;7.32;3.90;;;2.00;99.90;;;;;;5027127;28;20025;-44
2022/02/13 00:42:59;;;;;;;6.90;3.75;;;2.00;99.90;;;;;;5027435;28;20060;-43
2022/02/13 00:45:24;;;;;;;9.38;4.18;;;2.00;99.90;;;;;;5027042;28;20029;-44
2022/02/13 00:47:50;;;;;;;6.38;4.10;;;2.00;99.90;;;;;;5026599;28;20059;-44
2022/02/13 00:50:16;;;;;;;8.32;4.70;;;1.90;99.90;;;;;;5026792;28;20064;-43
2022/02/13 00:52:41;;;;;;;9.05;4.75;;;1.90;99.90;;;;;;5027829;28;20045;-44
2022/02/13 00:55:07;;;;;;;9.23;5.40;;;1.90;99.90;;;;;;5026315;28;20083;-42
2022/02/13 00:57:33;;;;;;;10.25;5.03;;;1.90;99.90;;;;;;5027431;28;20025;-42
2022/02/13 00:59:58;;;;;;;9.82;4.95;;;1.90;99.90;;;;;;5027154;28;20029;-43
2022/02/13 01:02:24;;;;;;;7.47;4.72;;;1.90;99.90;;;;;;5025584;28;20107;-43
2022/02/13 01:04:50;;;;;;;11.23;5.20;;;1.80;99.90;;;;;;5026658;28;20443;-43
2022/02/13 01:07:15;;;;;;;8.18;4.30;;;1.80;99.90;;;;;;5026343;28;20030;-44
2022/02/13 01:09:41;;;;;;;8.10;4.35;;;1.80;99.90;;;;;;5026380;28;20775;-43
2022/02/13 01:12:07;;;;;;;8.85;4.20;;;1.80;99.90;;;;;;5027191;28;20052;-42
2022/02/13 01:14:32;;;;;;;6.63;4.60;;;1.80;99.90;;;;;;5027445;28;20139;-44
2022/02/13 01:16:58;;;;;;;6.85;4.30;;;1.70;99.90;;;;;;5026514;28;20464;-41
2022/02/13 01:19:23;;;;;;;7.85;4.80;;;1.70;99.90;;;;;;5025788;28;20428;-42
2022/02/13 01:21:49;;;;;;;8.90;5.15;;;1.70;99.90;;;;;;5026390;28;20026;-42
2022/02/13 01:24:14;;;;;;;7.88;5.38;;;1.70;99.90;;;;;;5026083;28;20029;-42
2022/02/13 01:26:40;;;;;;;7.47;5.18;;;1.70;99.90;;;;;;5027078;28;20030;-43
2022/02/13 01:29:06;;;;;;;7.18;4.90;;;1.70;99.90;;;;;;5026078;28;20032;-44
2022/02/13 01:31:34;;;;;;;8.10;5.00;;;1.70;99.90;;;;;;5025037;28;20021;-44
2022/02/13 01:33:59;;;;;;;6.10;4.32;;;1.70;99.90;;;;;;5026870;28;20033;-43
2022/02/13 01:36:25;;;;;;;7.82;5.18;;;1.70;99.90;;;;;;5025260;28;20028;-44
2022/02/13 01:38:50;;;;;;;8.93;5.40;;;1.60;99.90;;;;;;5026671;28;20034;-44
2022/02/13 01:41:17;;;;;;;7.65;4.65;;;1.60;99.90;;;;;;5025403;28;20043;-44
2022/02/13 01:43:42;;;;;;;8.73;4.75;;;1.60;99.90;;;;;;5025853;28;20100;-43
2022/02/13 01:46:09;;;;;;;7.30;4.80;;;1.60;99.90;;;;;;5026042;28;20029;-42
2022/02/13 01:48:35;;;;;;;7.40;4.68;;;1.60;99.90;;;;;;5026113;28;20025;-44
2022/02/13 01:51:00;;;;;;;10.07;5.10;;;1.60;99.90;;;;;;5026055;28;20025;-43
2022/02/13 01:53:27;;;;;;;8.00;4.90;;;1.60;99.90;;;;;;5026006;28;20051;-46
2022/02/13 01:55:53;;;;;;;8.93;4.38;;;1.50;99.90;;;;;;5025968;28;20116;-43
2022/02/13 01:58:19;;;;;;;8.15;4.68;;;1.50;99.90;;;;;;5025315;28;20120;-43
2022/02/13 02:00:44;;;;;;;7.60;4.50;;;1.50;99.90;;;;;;5025951;28;20770;-43
2022/02/13 02:03:10;;;;;;;7.22;4.40;;;1.50;99.90;;;;;;5025745;28;20038;-43
2022/02/13 02:05:35;;;;;;;4.82;3.85;;;1.50;99.90;;;;;;5024965;28;20052;-44
2022/02/13 02:08:01;;;;;;;7.78;4.43;;;1.50;99.90;;;;;;5025680;28;20029;-44
2022/02/13 02:10:27;;;;;;;5.95;3.78;;;1.50;99.90;;;;;;5025751;28;20609;-43
2022/02/13 02:12:53;;;;;;;6.55;3.72;;;1.50;99.90;;;;;;5025060;28;20035;-43
2022/02/13 02:15:18;;;;;;;7.15;4.82;;;1.50;99.90;;;;;;5025252;28;20117;-44
2022/02/13 02:17:44;;;;;;;8.40;5.65;;;1.40;99.90;;;;;;5025413;28;20096;-44
2022/02/13 02:20:11;;;;;;;7.28;5.18;;;1.40;99.90;;;;;;5024955;28;20100;-43
2022/02/13 02:22:37;;;;;;;8.93;5.20;;;1.40;99.90;;;;;;5025521;28;20033;-43
2022/02/13 02:25:03;;;;;;;9.27;5.97;;;1.40;99.90;;;;;;5025240;28;20040;-43
2022/02/13 02:27:28;;;;;;;8.70;5.55;;;1.40;99.90;;;;;;5025083;28;20757;-44
2022/02/13 02:29:54;;;;;;;9.85;5.10;;;1.40;99.90;;;;;;5025395;28;20021;-43
2022/02/13 02:32:19;;;;;;;8.43;4.90;;;1.40;99.90;;;;;;5024085;28;20033;-43
2022/02/13 02:34:45;;;;;;;8.45;4.60;;;1.40;99.90;;;;;;5026022;28;20025;-43
2022/02/13 02:37:11;;;;;;;9.45;4.97;;;1.40;99.90;;;;;;5025132;28;20390;-44
2022/02/13 02:39:37;;;;;;;7.63;5.00;;;1.40;99.90;;;;;;5024569;28;20043;-43
2022/02/13 02:42:03;;;;;;;7.38;5.20;;;1.40;99.90;;;;;;5025542;28;20503;-43
2022/02/13 02:44:31;;;;;;;9.95;5.20;;;1.40;99.90;;;;;;5024602;28;20018;-44
2022/02/13 02:46:57;;;;;;;7.70;5.07;;;1.40;99.90;;;;;;5024433;28;20029;-42
2022/02/13 02:49:22;;;;;;;7.82;4.90;;;1.40;99.90;;;;;;5025368;28;20500;-43
2022/02/13 02:51:48;;;;;;;8.93;4.82;;;1.40;99.90;;;;;;5025576;28;20767;-43
2022/02/13 02:54:13;;;;;;;6.32;4.35;;;1.40;99.90;;;;;;5024342;28;20033;-43
2022/02/13 02:56:39;;;;;;;6.90;4.70;;;1.40;99.90;;;;;;5025691;28;20107;-43
2022/02/13 02:59:04;;;;;;;8.55;5.15;;;1.40;99.90;;;;;;5025053;28;20025;-43
2022/02/13 03:01:30;;;;;;;6.88;4.32;;;1.40;99.90;;;;;;5023914;28;20358;-43
2022/02/13 03:03:55;;;;;;;6.38;4.65;;;1.40;99.90;;;;;;5024803;28;20542;-43
2022/02/13 03:06:21;;;;;;;6.75;4.70;;;1.40;99.90;;;;;;5025409;28;20076;-42
2022/02/13 03:08:46;;;;;;;7.68;4.30;;;1.40;99.90;;;;;;5024426;28;20075;-43
2022/02/13 03:11:12;;;;;;;9.48;6.25;;;1.40;99.90;;;;;;5025124;28;20029;-44
2022/02/13 03:13:38;;;;;;;7.75;5.22;;;1.40;99.90;;;;;;5024611;28;20124;-43
2022/02/13 03:16:03;;;;;;;8.30;5.65;;;1.40;99.90;;;;;;5024396;28;20464;-43
2022/02/13 03:18:30;;;;;;;12.15;4.97;;;1.40;99.90;;;;;;5024565;28;20885;-42
2022/02/13 03:20:56;;;;;;;9.02;5.85;;;1.40;99.90;;;;;;5025125;28;20021;-43
2022/02/13 03:23:22;;;;;;;8.27;4.75;;;1.40;99.90;;;;;;5023227;28;20526;-43
2022/02/13 03:25:48;;;;;;;9.65;5.50;;;1.40;99.90;;;;;;5025826;28;20136;-42
2022/02/13 03:28:14;;;;;;;7.93;5.25;;;1.40;99.90;;;;;;5028085;28;20041;-43
2022/02/13 03:30:40;;;;;;;7.63;5.50;;;1.40;99.90;;;;;;5028824;28;20021;-43
2022/02/13 03:33:06;;;;;;;7.40;5.40;;;1.40;99.90;;;;;;5029227;28;20041;-42
2022/02/13 03:35:32;;;;;;;8.43;5.57;;;1.40;99.90;;;;;;5027267;28;20789;-43
2022/02/13 03:37:57;;;;;;;8.45;5.45;;;1.40;99.90;;;;;;5029285;28;20106;-46
2022/02/13 03:40:23;;;;;;;11.10;5.50;;;1.40;99.90;;;;;;5027909;28;20017;-44
2022/02/13 03:42:49;;;;;;;8.43;5.07;;;1.40;99.90;;;;;;5027858;28;20068;-43
2022/02/13 03:45:15;;;;;;;9.35;5.10;;;1.40;99.90;;;;;;5027835;28;20060;-43
2022/02/13 03:47:41;;;;;;;8.80;5.20;;;1.40;99.90;;;;;;5028595;28;20260;-43
2022/02/13 03:50:07;;;;;;;9.52;5.75;;;1.40;99.90;;;;;;5028038;28;20032;-43
2022/02/13 03:52:33;;;;;;;9.13;6.13;;;1.40;99.90;;;;;;5028318;28;20368;-42
2022/02/13 03:55:00;;;;;;;12.35;6.03;;;1.40;99.90;;;;;;5028128;28;20394;-42
2022/02/13 03:57:26;;;;;;;6.93;5.15;;;1.40;99.90;;;;;;5027144;28;20041;-43
2022/02/13 03:59:51;;;;;;;6.45;4.70;;;1.40;99.90;;;;;;5028260;28;20326;-43
2022/02/13 04:02:17;;;;;;;10.27;5.25;;;1.40;99.90;;;;;;5028056;28;20492;-44
2022/02/13 04:04:43;;;;;;;7.13;4.78;;;1.40;99.90;;;;;;5027572;28;20041;-43
2022/02/13 04:07:08;;;;;;;7.90;5.03;;;1.40;99.90;;;;;;5028048;28;20025;-43
2022/02/13 04:09:34;;;;;;;8.70;4.97;;;1.40;99.90;;;;;;5028062;28;20684;-43
2022/02/13 04:11:59;;;;;;;6.95;4.65;;;1.40;99.90;;;;;;5027147;28;20029;-43
2022/02/13 04:14:25;;;;;;;7.13;5.05;;;1.30;99.90;;;;;;5028009;28;20132;-43
2022/02/13 04:16:50;;;;;;;5.03;4.22;;;1.30;99.90;;;;;;5028224;28;20140;-42
2022/02/13 04:19:16;;;;;;;8.27;4.97;;;1.30;99.90;;;;;;5026995;28;20021;-42
2022/02/13 04:21:41;;;;;;;7.72;5.40;;;1.30;99.90;;;;;;5028043;28;20548;-42
2022/02/13 04:24:07;;;;;;;9.88;5.75;;;1.30;99.90;;;;;;5027991;28;20040;-43
2022/02/13 04:26:33;;;;;;;7.00;4.57;;;1.40;99.90;;;;;;5026666;28;20014;-43
2022/02/13 04:28:58;;;;;;;6.68;4.60;;;1.30;99.90;;;;;;5027895;28;20487;-43
2022/02/13 04:31:24;;;;;;;7.90;4.53;;;1.30;99.90;;;;;;5027469;28;20808;-43
2022/02/13 04:33:49;;;;;;;6.32;4.63;;;1.30;99.90;;;;;;5026944;28;20124;-43
2022/02/13 04:36:15;;;;;;;7.43;4.10;;;1.30;99.90;;;;;;5026552;28;20032;-43
2022/02/13 04:38:40;;;;;;;7.55;5.03;;;1.30;99.90;;;;;;5027085;28;20034;-43
2022/02/13 04:41:06;;;;;;;7.32;4.78;;;1.30;99.90;;;;;;5027093;28;20104;-42
2022/02/13 04:43:33;;;;;;;6.38;4.55;;;1.30;99.90;;;;;;5026819;28;20132;-42
2022/02/13 04:45:58;;;;;;;6.30;4.35;;;1.30;99.90;;;;;;5026779;28;20025;-43
2022/02/13 04:48:24;;;;;;;6.93;3.97;;;1.20;99.90;;;;;;5026859;28;20021;-42
2022/02/13 04:50:49;;;;;;;6.15;3.90;;;1.30;99.90;;;;;;5027547;28;20481;-43
2022/02/13 04:53:15;;;;;;;6.45;4.07;;;1.20;99.90;;;;;;5025381;28;20029;-42
2022/02/13 04:55:41;;;;;;;6.18;4.13;;;1.20;99.90;;;;;;5027728;28;20067;-41
2022/02/13 04:58:06;;;;;;;6.75;4.32;;;1.20;99.90;;;;;;5027394;28;20028;-43
2022/02/13 05:00:32;;;;;;;7.32;4.25;;;1.20;99.90;;;;;;5025882;28;20456;-42
2022/02/13 05:02:58;;;;;;;4.47;4.05;;;1.20;99.90;;;;;;5027460;28;20064;-42
2022/02/13 05:05:23;;;;;;;7.05;4.40;;;1.20;99.90;;;;;;5026228;28;20041;-43
2022/02/13 05:07:49;;;;;;;5.82;4.10;;;1.20;99.90;;;;;;5026212;28;20491;-43
2022/02/13 05:10:14;;;;;;;6.85;3.97;;;1.20;99.90;;;;;;5026547;28;20068;-44
2022/02/13 05:12:40;;;;;;;7.47;4.95;;;1.20;99.90;;;;;;5026681;28;20063;-44
2022/02/13 05:15:07;;;;;;;6.05;4.35;;;1.20;99.90;;;;;;5026367;28;20025;-43
2022/02/13 05:17:35;;;;;;;5.88;4.35;;;1.20;99.90;;;;;;5026853;28;20127;-43
2022/02/13 05:20:01;;;;;;;6.60;4.90;;;1.20;99.90;;;;;;5027050;28;20025;-43
2022/02/13 05:22:27;;;;;;;6.68;3.90;;;1.20;99.90;;;;;;5025820;28;20026;-44
2022/02/13 05:24:52;;;;;;;6.05;4.60;;;1.20;99.90;;;;;;5026793;28;20520;-44
2022/02/13 05:27:18;;;;;;;5.55;4.13;;;1.20;99.90;;;;;;5026479;28;20108;-43
2022/02/13 05:29:44;;;;;;;6.43;4.78;;;1.20;99.90;;;;;;5025750;28;20364;-42
2022/02/13 05:32:09;;;;;;;5.40;4.43;;;1.20;99.90;;;;;;5026426;28;20057;-43
2022/02/13 05:34:35;;;;;;;7.07;4.55;;;1.20;99.90;;;;;;5026097;28;20088;-42
2022/02/13 05:37:00;;;;;;;8.55;5.03;;;1.20;99.90;;;;;;5025832;28;20104;-43
2022/02/13 05:39:26;;;;;;;8.00;4.97;;;1.20;99.90;;;;;;5026111;28;20183;-43
2022/02/13 05:41:52;;;;;;;7.93;4.68;;;1.20;99.90;;;;;;5006570;28;20132;-41
2022/02/13 05:44:18;;;;;;;7.25;4.72;;;1.20;99.90;;;;;;5020293;28;20056;-42
2022/02/13 05:46:43;;;;;;;6.90;4.80;;;1.10;99.90;;;;;;5026665;28;20017;-43
2022/02/13 05:49:09;;;;;;;7.05;4.40;;;1.10;99.90;;;;;;5024628;28;20025;-44
2022/02/13 05:51:35;;;;;;;6.93;4.40;;;1.10;99.90;;;;;;5026087;28;20021;-43
2022/02/13 05:54:01;;;;;;;6.40;3.95;;;1.10;99.90;;;;;;5026658;28;20036;-42
2022/02/13 05:56:27;;;;;;;5.57;3.83;;;1.10;99.90;;;;;;5024989;28;20025;-42
2022/02/13 05:58:53;;;;;;;4.95;3.10;;;1.10;99.90;;;;;;5026071;28;20465;-43
2022/02/13 06:01:19;;;;;;;5.50;3.72;;;1.10;99.90;;;;;;5025610;28;20045;-42
2022/02/13 06:03:45;;;;;;;6.53;3.75;;;1.10;99.90;;;;;;5025380;28;20021;-43
2022/02/13 06:06:11;;;;;;;4.60;3.75;;;1.00;99.90;;;;;;5025630;28;20445;-42
2022/02/13 06:08:37;;;;;;;4.75;4.18;;;1.00;99.90;;;;;;5025739;28;20113;-43
2022/02/13 06:11:03;;;;;;;4.50;3.40;;;1.00;99.90;;;;;;5025166;28;20076;-43
2022/02/13 06:13:28;;;;;;;5.90;4.13;;;1.10;99.90;;;;;;5025003;28;20124;-44
2022/02/13 06:15:54;;;;;;;7.72;4.03;;;1.00;99.90;;;;;;5025380;28;20037;-42
2022/02/13 06:18:20;;;;;;;6.53;4.07;;;1.10;99.90;;;;;;5024751;28;20026;-43
2022/02/13 06:20:45;;;;;;;7.85;5.07;;;1.10;99.90;;;;;;5025878;28;20108;-44
2022/02/13 06:23:11;;;;;;;7.00;5.13;;;1.10;99.90;;;;;;5025507;28;20033;-44
2022/02/13 06:25:37;;;;;;;7.38;4.65;;;1.10;99.90;;;;;;5024221;28;20033;-45
2022/02/13 06:28:03;;;;;;;7.63;4.85;;;1.10;99.90;;;;;;5025669;28;20033;-43
2022/02/13 06:30:29;;;;;;;7.47;4.60;;;1.10;99.90;;;;;;5024947;28;20029;-43
2022/02/13 06:32:57;;;;;;;6.53;4.40;;;1.10;99.90;;;;;;5024688;28;20033;-43
2022/02/13 06:35:24;;;;;;;5.70;4.68;;;1.10;99.90;;;;;;5025300;28;20479;-43
2022/02/13 06:37:49;;;;;;;6.30;4.82;;;1.20;99.90;;;;;;5025652;28;20037;-43
2022/02/13 06:40:15;;;;;;;8.32;5.00;;;1.20;99.90;;;;;;5024463;28;20385;-44
2022/02/13 06:42:40;;;;;;;9.65;5.57;;;1.20;99.90;;;;;;5026145;28;20041;-44
2022/02/13 06:45:07;;;;;;;7.38;4.60;;;1.20;99.90;;;;;;5025224;28;20018;-43
2022/02/13 06:47:32;;;;;;;6.63;4.85;;;1.20;99.90;;;;;;5024303;28;20029;-43
2022/02/13 06:49:58;;;;;;;6.30;4.40;;;1.20;99.90;;;;;;5025118;28;20021;-43
2022/02/13 06:52:23;;;;;;;6.55;4.45;;;1.30;99.90;;;;;;5024599;28;20532;-43
2022/02/13 06:54:49;;;;;;;7.75;4.32;;;1.30;99.90;;;;;;5025302;28;20048;-44
2022/02/13 06:57:14;;;;;;;6.75;4.90;;;1.30;99.90;;;;;;5024360;28;20142;-44
2022/02/13 06:59:41;;;;;;;6.75;4.72;;;1.30;99.90;;;;;;5024868;28;20037;-43
2022/02/13 07:02:09;;;;;;;10.02;5.10;;;1.30;99.90;;;;;;5027021;28;20025;-43
2022/02/13 07:04:36;;;;;;;7.20;5.20;;;1.40;99.90;;;;;;5029259;28;20123;-43
2022/02/13 07:07:03;;;;;;;8.68;5.40;;;1.50;99.90;;;;;;5028469;28;20029;-43
2022/02/13 07:09:29;;;;;;;6.65;4.97;;;1.50;99.90;;;;;;5028784;28;20076;-43
2022/02/13 07:11:54;;;;;;;6.93;5.25;;;1.50;99.90;;;;;;5029067;28;21040;-42
2022/02/13 07:14:20;;;;;;;7.65;5.53;;;1.60;99.90;;;;;;5028042;28;20026;-43
2022/02/13 07:16:45;;;;;;;9.73;5.35;;;1.60;99.90;;;;;;5029124;28;20420;-43
2022/02/13 07:19:11;;;;;;;7.35;5.00;;;1.60;99.90;;;;;;5029130;28;20132;-44
2022/02/13 07:21:36;;;;;;;7.95;4.88;;;1.70;99.90;;;;;;5027614;28;20519;-42
2022/02/13 07:24:02;;;;;;;6.90;5.28;;;1.70;99.90;;;;;;5028801;28;20025;-43
2022/02/13 07:26:27;;;;;;;6.80;5.03;;;1.70;99.90;;;;;;5027655;28;20477;-42
2022/02/13 07:28:59;;;;;;;7.57;5.00;;;1.80;99.90;;;;;;5028662;28;20037;-43
2022/02/13 07:31:25;;;;;;;7.40;4.38;;;1.80;99.90;;;;;;5028660;28;20099;-43
2022/02/13 07:33:50;;;;;;;7.18;5.15;;;1.80;99.90;;;;;;5029485;28;20037;-43
2022/02/13 07:36:19;;;;;;;6.88;4.80;;;1.80;99.90;;;;;;5027879;28;20032;-42
2022/02/13 07:38:45;;;;;;;7.53;4.60;;;1.90;99.90;;;;;;5028099;28;20051;-43
2022/02/13 07:41:10;;;;;;;8.40;4.72;;;1.90;99.90;;;;;;5028552;28;20025;-42
2022/02/13 07:43:36;;;;;;;7.25;4.90;;;1.90;99.90;;;;;;5027686;28;20029;-43
2022/02/13 07:46:02;;;;;;;6.85;4.47;;;1.90;99.90;;;;;;5028599;28;20103;-43
2022/02/13 07:48:27;;;;;;;7.32;5.10;;;1.90;99.90;;;;;;5027422;28;20029;-41
2022/02/13 07:50:53;;;;;;;6.65;4.78;;;1.90;99.90;;;;;;5028248;28;20392;-43
2022/02/13 07:53:19;;;;;;;7.40;4.45;;;2.00;99.90;;;;;;5027519;28;20037;-42
2022/02/13 07:55:44;;;;;;;7.28;4.78;;;2.00;99.90;;;;;;5027701;28;20025;-42
2022/02/13 07:58:10;;;;;;;8.27;5.22;;;2.00;99.90;;;;;;5028196;28;20503;-44
2022/02/13 08:00:36;;;;;;;5.10;4.40;;;2.10;99.90;;;;;;5028268;28;20025;-42
2022/02/13 08:03:01;;;;;;;7.72;5.20;;;2.20;99.90;;;;;;5027441;28;20025;-43
2022/02/13 08:05:27;;;;;;;6.30;4.68;;;2.30;99.90;;;;;;5027951;28;20171;-42
2022/02/13 08:07:52;;;;;;;7.32;5.80;;;2.40;99.90;;;;;;5028349;28;20036;-43
2022/02/13 08:10:18;;;;;;;8.02;4.90;;;2.50;99.90;;;;;;5027381;28;20111;-43
2022/02/13 08:12:45;;;;;;;5.40;4.53;;;2.50;99.90;;;;;;5027671;28;20029;-43
2022/02/13 08:15:10;;;;;;;7.43;4.45;;;2.60;99.90;;;;;;5027511;28;20025;-42
2022/02/13 08:17:36;;;;;;;7.93;5.57;;;2.70;99.90;;;;;;5027669;28;20699;-42
2022/02/13 08:20:05;;;;;;;10.27;5.05;;;2.70;99.90;;;;;;5027403;28;20026;-42
2022/02/13 08:22:35;;;;;;;6.95;5.00;;;2.80;99.90;;;;;;5027053;28;20559;-43
2022/02/13 08:25:01;;;;;;;7.63;4.97;;;2.80;99.90;;;;;;5024237;28;20022;-42
2022/02/13 08:27:27;;;;;;;7.18;4.93;;;2.90;99.90;;;;;;5026713;28;20147;-42
2022/02/13 08:29:53;;;;;;;7.05;4.55;;;3.00;99.90;;;;;;5026760;28;20582;-44
2022/02/13 08:32:18;;;;;;;6.53;4.45;;;3.10;99.90;;;;;;5026235;28;20465;-43
2022/02/13 08:34:45;;;;;;;6.55;5.13;;;3.10;99.90;;;;;;5026504;28;20040;-44
2022/02/13 08:37:14;;;;;;;8.90;5.10;;;3.20;99.90;;;;;;5026587;28;20065;-43
2022/02/13 08:39:40;;;;;;;5.80;4.53;;;3.30;99.90;;;;;;5026077;28;20025;-43
2022/02/13 08:42:06;;;;;;;5.85;4.20;;;3.30;99.90;;;;;;5027110;28;20025;-43
2022/02/13 08:44:31;;;;;;;6.75;4.50;;;3.40;99.90;;;;;;5025964;28;20057;-41
2022/02/13 08:46:57;;;;;;;6.03;4.90;;;3.40;99.90;;;;;;5025971;28;20151;-43
2022/02/13 08:49:22;;;;;;;6.15;4.60;;;3.50;99.90;;;;;;5026239;28;20032;-42
2022/02/13 08:51:48;;;;;;;5.75;4.70;;;3.50;99.90;;;;;;5014837;28;20167;-42
2022/02/13 08:54:13;;;;;;;6.38;5.00;;;3.60;99.90;;;;;;5025784;28;20036;-44
2022/02/13 08:56:39;;;;;;;7.43;5.10;;;3.60;99.90;;;;;;5026816;28;20017;-43
2022/02/13 08:59:05;;;;;;;8.10;5.53;;;3.70;99.90;;;;;;5025843;28;20026;-44
2022/02/13 09:01:30;;;;;;;6.72;5.15;;;3.70;99.90;;;;;;5026167;28;20022;-43
2022/02/13 09:03:56;;;;;;;5.68;4.75;;;3.80;99.90;;;;;;5026192;28;20021;-43
2022/02/13 09:06:21;;;;;;;6.65;5.05;;;3.80;99.90;;;;;;5024880;28;20535;-43
2022/02/13 09:08:47;;;;;;;6.68;5.15;;;3.90;99.90;;;;;;5027022;28;20036;-43
2022/02/13 09:11:13;;;;;;;7.82;5.18;;;4.00;99.90;;;;;;5025461;28;20508;-42
2022/02/13 09:13:38;;;;;;;6.15;5.28;;;4.00;99.90;;;;;;5025732;28;20033;-41
2022/02/13 09:16:04;;;;;;;5.88;4.85;;;4.00;99.90;;;;;;5025345;28;20021;-42
2022/02/13 09:18:30;;;;;;;5.90;4.72;;;4.10;99.90;;;;;;5025293;28;20035;-43
2022/02/13 09:20:55;;;;;;;7.43;4.95;;;4.20;99.90;;;;;;5025410;28;20045;-42
2022/02/13 09:23:24;;;;;;;6.95;5.35;;;4.30;99.90;;;;;;5025215;28;20859;-43
2022/02/13 09:25:53;;;;;;;7.90;5.00;;;4.30;99.90;;;;;;5025368;28;20030;-43
2022/02/13 09:28:19;;;;;;;9.35;6.65;;;4.30;99.90;;;;;;5024953;28;20107;-43
2022/02/13 09:30:47;;;;;;;7.22;5.53;;;4.40;99.90;;;;;;5025635;28;20038;-43
2022/02/13 09:33:13;;;;;;;8.60;5.90;;;4.50;99.90;;;;;;5025341;28;20045;-42
2022/02/13 09:35:39;;;;;;;7.72;5.40;;;4.50;99.90;;;;;;5025211;28;20025;-42
2022/02/13 09:38:05;;;;;;;8.98;5.85;;;4.60;99.90;;;;;;5025836;28;20425;-43
2022/02/13 09:40:35;;;;;;;7.53;5.47;;;4.70;99.90;;;;;;5024643;28;20036;-42
2022/02/13 09:43:04;;;;;;;7.10;4.95;;;4.80;99.90;;;;;;5025010;28;20025;-43
2022/02/13 09:45:31;;;;;;;7.05;5.22;;;4.90;99.90;;;;;;5024857;28;20029;-44
2022/02/13 09:48:00;;;;;;;8.52;6.32;;;4.90;99.90;;;;;;5025291;28;20503;-43
2022/02/13 09:50:28;;;;;;;7.55;5.65;;;4.90;99.90;;;;;;5024597;28;20040;-43
2022/02/13 09:52:57;;;;;;;6.60;5.22;;;5.00;99.90;;;;;;5025107;28;20743;-42
2022/02/13 09:55:26;;;;;;;6.70;5.25;;;5.00;99.90;;;;;;5004889;28;20018;-42
2022/02/13 09:57:59;;;;;;;8.95;5.90;;;4.90;99.90;;;;;;5020610;28;20044;-43
2022/02/13 10:00:45;;;;;;;7.55;5.40;;;4.90;99.90;;;;;;5024795;28;20554;-43
2022/02/13 10:03:35;;;;;;;6.60;4.65;;;4.90;99.90;;;;;;5024289;28;20033;-45
2022/02/13 10:06:20;;;;;;;7.22;5.70;;;5.00;99.90;;;;;;5005557;28;20116;-43
2022/02/13 10:08:48;;;;;;;7.35;6.43;;;5.00;99.90;;;;;;5024657;28;20030;-43
2022/02/13 10:11:25;;;;;;;7.10;5.50;;;5.00;99.90;;;;;;5024053;28;20473;-44
2022/02/13 10:14:01;;;;;;;10.15;5.53;;;5.00;99.90;;;;;;5025342;28;20461;-43
2022/02/13 10:16:37;;;;;;;8.32;6.07;;;5.10;99.90;;;;;;5024062;28;20072;-43
2022/02/13 10:19:08;;;;;;;6.97;5.63;;;5.10;99.90;;;;;;5024753;28;20095;-43
2022/02/13 10:21:35;;;;;;;6.38;4.85;;;5.10;99.90;;;;;;5025455;28;20457;-43
2022/02/13 10:24:23;;;;;;;5.30;4.70;;;5.20;99.90;;;;;;5024001;28;20437;-43
2022/02/13 10:27:03;;;;;;;8.73;5.72;;;5.20;99.90;;;;;;5025570;28;20053;-44
2022/02/13 10:29:33;;;;;;;6.40;5.13;;;5.20;99.90;;;;;;5025445;28;20021;-43
2022/02/13 10:32:14;;;;;;;7.45;5.32;;;5.30;99.90;;;;;;5025480;28;20036;-42
2022/02/13 10:34:54;;;;;;;6.90;5.20;;;5.30;99.90;;;;;;5025656;28;20040;-43
2022/02/13 10:37:41;;;;;;;6.75;5.05;;;5.40;99.90;;;;;;5025590;28;20064;-43
2022/02/13 10:40:09;;;;;;;7.20;4.68;;;5.40;99.90;;;;;;5025896;28;20116;-44
2022/02/13 10:42:34;;;;;;;6.15;5.10;;;5.40;99.90;;;;;;5025210;28;20643;-43
2022/02/13 10:45:19;;;;;;;6.20;5.13;;;5.50;99.90;;;;;;5024970;28;20205;-43
2022/02/13 10:47:46;;;;;;;6.68;5.35;;;5.50;99.90;;;;;;5025430;28;20626;-43
2022/02/13 10:50:17;;;;;;;7.45;5.00;;;5.60;99.90;;;;;;5024796;28;20142;-44
2022/02/13 10:52:45;;;;;;;5.70;4.45;;;5.70;99.90;;;;;;5024773;28;20033;-43
2022/02/13 10:55:11;;;;;;;6.60;4.85;;;5.70;99.90;;;;;;5024886;28;20564;-43
2022/02/13 10:57:37;;;;;;;7.65;5.07;;;5.70;99.90;;;;;;5024919;28;20076;-43
2022/02/13 11:00:04;;;;;;;8.57;5.75;;;5.80;99.90;;;;;;5024454;28;20156;-44
2022/02/13 11:02:32;;;;;;;7.45;5.05;;;5.90;99.90;;;;;;5024762;28;20021;-43
2022/02/13 11:04:58;;;;;;;8.05;5.10;;;6.00;99.90;;;;;;5024687;28;20877;-42
2022/02/13 11:07:24;;;;;;;5.53;4.50;;;6.10;99.90;;;;;;5024104;28;20033;-44
2022/02/13 11:09:51;;;;;;;6.07;4.72;;;6.10;99.90;;;;;;5025320;28;20032;-43
2022/02/13 11:12:19;;;;;;;6.65;4.97;;;6.20;99.90;;;;;;5024484;28;20128;-43
2022/02/13 11:14:47;;;;;;;6.78;4.57;;;6.30;99.90;;;;;;5024779;28;20033;-42
2022/02/13 11:17:32;;;;;;;5.57;4.18;;;6.30;99.90;;;;;;5024536;28;20037;-43
2022/02/13 11:19:58;;;;;;;6.93;4.22;;;6.40;99.90;;;;;;5022705;28;20503;-42
2022/02/13 11:22:36;;;;;;;6.57;4.60;;;6.50;99.90;;;;;;5022930;28;20132;-43
2022/02/13 11:25:04;;;;;;;5.13;4.38;;;6.60;99.90;;;;;;5023376;28;20040;-42
2022/02/13 11:27:58;;;;;;;6.95;4.20;;;6.70;99.90;;;;;;5023396;28;20029;-44
2022/02/13 11:30:42;;;;;;;6.22;4.20;;;6.80;99.90;;;;;;5014334;28;20041;-43
2022/02/13 11:33:31;;;;;;;5.35;4.40;;;6.90;99.90;;;;;;5024137;28;20076;-43
2022/02/13 11:36:05;;;;;;;5.03;4.18;;;6.90;99.90;;;;;;5016550;28;20025;-42
2022/02/13 11:38:48;;;;;;;5.72;4.47;;;7.00;99.90;;;;;;5024308;28;20029;-42
2022/02/13 11:41:15;;;;;;;5.55;4.50;;;7.10;99.90;;;;;;5023579;28;20037;-44
2022/02/13 11:43:59;;;;;;;6.43;4.32;;;7.10;99.90;;;;;;5024568;28;20029;-44
2022/02/13 11:46:27;;;;;;;5.57;4.15;;;7.20;99.90;;;;;;5024416;28;20043;-42
2022/02/13 11:48:58;;;;;;;5.22;4.15;;;7.30;99.90;;;;;;5028177;28;20033;-43
2022/02/13 11:51:45;;;;;;;5.05;4.18;;;7.30;99.90;;;;;;5027781;28;20032;-43
2022/02/13 11:54:31;;;;;;;5.45;4.32;;;7.40;99.90;;;;;;5027425;28;20053;-44
2022/02/13 11:57:15;;;;;;;6.30;4.25;;;7.40;99.90;;;;;;5017945;28;20125;-42
2022/02/13 12:00:06;;;;;;;5.57;4.38;;;7.50;99.90;;;;;;5007745;28;20818;-44
2022/02/13 12:02:35;;;;;;;6.22;4.32;;;7.60;99.90;;;;;;5027138;28;20593;-42
2022/02/13 12:05:07;;;;;;;5.22;4.10;;;7.70;99.90;;;;;;5028606;28;20053;-42
2022/02/13 12:07:35;;;;;;;6.32;4.53;;;7.70;99.90;;;;;;5027737;28;20037;-43
2022/02/13 12:10:05;;;;;;;7.32;4.50;;;7.80;99.90;;;;;;5026718;28;20465;-43
2022/02/13 12:12:31;;;;;;;6.93;4.88;;;7.90;99.90;;;;;;5027019;28;20040;-43
2022/02/13 12:14:57;;;;;;;4.65;4.00;;;8.00;99.90;;;;;;5027725;28;20037;-43
2022/02/13 12:17:27;;;;;;;5.75;4.20;;;8.00;99.90;;;;;;5026882;28;20786;-42
2022/02/13 12:20:01;;;;;;;5.40;4.07;;;8.10;99.90;;;;;;5009171;28;20045;-44
2022/02/13 12:22:27;;;;;;;6.05;5.03;;;8.20;99.90;;;;;;5020057;28;20790;-43
2022/02/13 12:24:55;;;;;;;5.35;4.10;;;8.20;99.90;;;;;;5027816;28;20083;-43
2022/02/13 12:27:23;;;;;;;7.45;5.32;;;8.30;99.90;;;;;;5025494;28;20034;-43
2022/02/13 12:29:53;;;;;;;5.45;4.68;;;8.30;99.90;;;;;;5027051;28;20018;-42
2022/02/13 12:32:22;;;;;;;6.65;4.53;;;8.40;99.90;;;;;;5026742;28;20025;-43
2022/02/13 12:34:49;;;;;;;6.43;4.68;;;8.60;99.90;;;;;;5027442;28;20029;-43
2022/02/13 12:37:14;;;;;;;6.45;4.90;;;8.60;99.90;;;;;;5026475;28;20408;-43
2022/02/13 12:39:40;;;;;;;6.38;4.70;;;8.70;99.90;;;;;;5027642;28;20040;-43
2022/02/13 12:42:05;;;;;;;5.22;4.38;;;8.70;99.90;;;;;;5027339;28;20028;-43
2022/02/13 12:44:58;;;;;;;4.68;3.90;;;8.70;99.90;;;;;;5026143;28;20041;-42
2022/02/13 12:47:31;;;;;;;5.82;4.47;;;8.80;99.90;;;;;;5026703;28;20052;-42
2022/02/13 12:50:00;;;;;;;5.47;4.18;;;8.80;99.90;;;;;;5017994;28;20029;-43
2022/02/13 12:52:26;;;;;;;5.13;4.05;;;8.80;99.90;;;;;;5034662;28;20030;-43
2022/02/13 12:54:51;;;;;;;5.70;4.00;;;8.90;99.90;;;;;;5027101;28;20033;-43
2022/02/13 12:57:18;;;;;;;4.53;4.00;;;9.00;99.90;;;;;;5026531;28;20065;-42
2022/02/13 12:59:45;;;;;;;5.68;4.38;;;9.00;99.90;;;;;;5021603;28;20140;-44